createdAt,value
2022-09-05T00:02:21.133Z,1.90
2022-09-05T00:05:05.240Z,1.70
2022-09-05T00:07:58.325Z,1.47
2022-09-05T00:11:05.545Z,1.53
2022-09-05T00:13:40.967Z,1.63
2022-09-05T00:16:53.264Z,1.60
2022-09-05T00:24:18.560Z,1.70
2022-09-05T00:24:26.076Z,1.93
2022-09-05T00:25:57.655Z,1.80
2022-09-05T00:28:47.310Z,1.70
2022-09-05T00:31:54.176Z,2.10
2022-09-05T00:34:50.295Z,2.10
2022-09-05T00:37:32.284Z,2.17
2022-09-05T00:40:26.296Z,2.10
2022-09-05T00:42:58.794Z,2.00
2022-09-05T00:45:42.339Z,2.00
2022-09-05T00:48:21.331Z,2.00
2022-09-05T00:51:08.288Z,1.93
2022-09-05T00:53:45.808Z,2.00
2022-09-05T00:56:45.306Z,1.80
2022-09-05T00:59:52.030Z,2.00
2022-09-05T01:02:51.500Z,2.17
2022-09-05T01:05:36.032Z,2.17
2022-09-05T01:08:27.469Z,2.10
2022-09-05T01:11:10.375Z,2.20
2022-09-05T01:13:53.482Z,2.00
2022-09-05T01:16:29.938Z,2.20
2022-09-05T01:19:21.470Z,2.10
2022-09-05T01:22:17.663Z,2.03
2022-09-05T01:25:17.312Z,1.93
2022-09-05T01:28:43.266Z,2.07
2022-09-05T01:31:03.381Z,2.03
2022-09-05T01:33:43.345Z,1.83
2022-09-05T01:36:29.345Z,2.10
2022-09-05T01:40:12.034Z,2.83
2022-09-05T01:42:07.415Z,3.27
2022-09-05T01:44:51.819Z,2.97
2022-09-05T01:47:42.353Z,3.43
2022-09-05T01:50:27.133Z,2.60
2022-09-05T01:53:23.378Z,2.47
2022-09-05T01:56:12.316Z,2.50
2022-09-05T01:59:00.516Z,2.57
2022-09-05T02:01:42.083Z,2.47
2022-09-05T02:04:46.387Z,2.63
2022-09-05T02:07:31.904Z,2.47
2022-09-05T02:10:40.521Z,2.27
2022-09-05T02:13:26.848Z,2.43
2022-09-05T02:16:10.577Z,2.53
2022-09-05T02:19:01.307Z,2.40
2022-09-05T02:21:56.300Z,2.20
2022-09-05T02:24:40.995Z,2.10
2022-09-05T02:28:03.886Z,2.40
2022-09-05T02:30:21.906Z,2.40
2022-09-05T02:33:17.408Z,2.10
2022-09-05T02:35:56.863Z,2.10
2022-09-05T02:43:51.855Z,2.10
2022-09-05T02:45:12.931Z,2.20
2022-09-05T02:45:16.343Z,1.93
2022-09-05T02:47:35.686Z,2.13
2022-09-05T02:52:30.623Z,2.10
2022-09-05T02:57:37.440Z,2.20
2022-09-05T02:58:06.554Z,2.13
2022-09-05T02:59:35.985Z,2.40
2022-09-05T03:02:25.461Z,2.03
2022-09-05T03:05:04.825Z,2.30
2022-09-05T03:08:04.662Z,2.20
2022-09-05T03:11:05.651Z,2.63
2022-09-05T03:14:26.505Z,2.17
2022-09-05T03:17:27.605Z,2.40
2022-09-05T03:20:23.882Z,2.37
2022-09-05T03:23:35.380Z,2.13
2022-09-05T03:26:52.266Z,2.03
2022-09-05T03:29:58.426Z,2.10
2022-09-05T03:33:16.089Z,2.10
2022-09-05T03:36:28.541Z,2.20
2022-09-05T03:39:48.130Z,2.50
2022-09-05T03:42:43.443Z,2.17
2022-09-05T03:45:36.907Z,2.17
2022-09-05T03:48:45.665Z,2.30
2022-09-05T03:57:05.935Z,2.10
2022-09-05T03:57:18.915Z,2.20
2022-09-05T03:58:16.869Z,2.10
2022-09-05T04:01:22.671Z,2.23
2022-09-05T04:08:16.080Z,2.20
2022-09-05T04:08:23.962Z,2.10
2022-09-05T04:09:56.995Z,2.30
2022-09-05T04:12:36.493Z,2.40
2022-09-05T04:15:08.879Z,2.20
2022-09-05T04:17:50.626Z,2.50
2022-09-05T04:20:25.966Z,2.10
2022-09-05T04:23:20.539Z,2.30
2022-09-05T04:26:19.548Z,2.13
2022-09-05T04:29:10.668Z,2.50
2022-09-05T04:32:00.996Z,2.20
2022-09-05T04:34:57.600Z,2.20
2022-09-05T04:37:47.929Z,2.00
2022-09-05T04:40:42.592Z,2.10
2022-09-05T04:43:20.448Z,2.10
2022-09-05T04:46:01.563Z,2.63
2022-09-05T04:48:36.612Z,2.40
2022-09-05T04:51:15.521Z,2.10
2022-09-05T04:54:08.199Z,2.53
2022-09-05T04:56:49.469Z,2.37
2022-09-05T05:04:32.430Z,2.30
2022-09-05T05:06:14.889Z,2.50
2022-09-05T05:06:17.544Z,2.40
2022-09-05T05:08:38.227Z,2.30
2022-09-05T05:16:54.352Z,2.53
2022-09-05T05:18:11.658Z,2.60
2022-09-05T05:18:15.332Z,2.73
2022-09-05T05:20:42.673Z,2.53
2022-09-05T05:23:15.874Z,2.60
2022-09-05T05:25:55.597Z,2.47
2022-09-05T05:28:29.587Z,2.50
2022-09-05T05:31:18.638Z,2.80
2022-09-05T05:33:50.343Z,2.37
2022-09-05T05:36:30.628Z,2.50
2022-09-05T05:39:04.750Z,2.27
2022-09-05T05:41:47.581Z,2.53
2022-09-05T05:44:18.721Z,2.20
2022-09-05T05:47:05.901Z,2.37
2022-09-05T05:49:47.161Z,2.50
2022-09-05T05:52:54.527Z,2.37
2022-09-05T05:55:52.834Z,2.50
2022-09-05T05:59:08.612Z,2.40
2022-09-05T06:02:17.231Z,2.60
2022-09-05T06:05:29.985Z,2.80
2022-09-05T06:11:22.009Z,2.40
2022-09-05T06:14:49.273Z,2.30
2022-09-05T06:15:21.234Z,2.60
2022-09-05T06:18:26.066Z,2.37
2022-09-05T06:22:10.819Z,2.30
2022-09-05T06:25:16.410Z,2.03
2022-09-05T06:28:19.143Z,2.00
2022-09-05T06:31:10.708Z,2.30
2022-09-05T06:34:12.967Z,2.13
2022-09-05T06:37:01.693Z,2.30
2022-09-05T06:39:56.743Z,2.10
2022-09-05T06:42:43.172Z,1.93
2022-09-05T06:45:37.792Z,2.03
2022-09-05T06:48:14.481Z,1.60
2022-09-05T06:51:36.723Z,1.90
2022-09-05T06:54:41.350Z,1.90
2022-09-05T06:57:44.845Z,2.00
2022-09-05T07:00:29.572Z,1.80
2022-09-05T07:03:27.860Z,1.70
2022-09-05T07:06:01.787Z,1.80
2022-09-05T07:08:50.774Z,2.10
2022-09-05T07:11:50.582Z,1.80
2022-09-05T07:14:29.828Z,1.90
2022-09-05T07:17:08.368Z,1.90
2022-09-05T07:19:46.699Z,1.83
2022-09-05T07:22:46.612Z,1.73
2022-09-05T07:25:26.394Z,1.60
2022-09-05T07:28:25.944Z,1.83
2022-09-05T07:30:57.661Z,1.90
2022-09-05T07:33:29.473Z,1.70
2022-09-05T07:36:14.822Z,1.50
2022-09-05T07:38:52.133Z,1.90
2022-09-05T07:41:34.751Z,1.83
2022-09-05T07:44:07.449Z,1.80
2022-09-05T07:46:46.884Z,1.73
2022-09-05T07:49:20.704Z,1.40
2022-09-05T07:56:50.174Z,1.53
2022-09-05T07:56:50.532Z,1.90
2022-09-05T07:57:52.976Z,1.73
2022-09-05T08:00:27.117Z,1.67
2022-09-05T08:03:07.662Z,1.60
2022-09-05T08:05:47.195Z,1.73
2022-09-05T08:08:25.690Z,1.77
2022-09-05T08:11:25.204Z,1.60
2022-09-05T08:14:38.534Z,1.67
2022-09-05T08:16:54.256Z,1.63
2022-09-05T08:19:53.015Z,1.70
2022-09-05T08:22:30.818Z,1.67
2022-09-05T08:25:11.770Z,1.53
2022-09-05T08:28:07.342Z,1.60
2022-09-05T08:30:51.875Z,1.40
2022-09-05T08:33:25.260Z,1.30
2022-09-05T08:36:03.759Z,1.40
2022-09-05T08:38:40.511Z,1.60
2022-09-05T08:41:49.982Z,1.43
2022-09-05T08:46:40.509Z,1.53
2022-09-05T08:47:25.843Z,1.57
2022-09-05T08:50:13.067Z,1.50
2022-09-05T08:53:02.849Z,1.23
2022-09-05T08:55:55.600Z,1.20
2022-09-05T08:58:46.765Z,1.20
2022-09-05T09:01:19.184Z,1.23
2022-09-05T09:05:00.686Z,1.67
2022-09-05T09:07:51.536Z,1.40
2022-09-05T09:10:39.890Z,1.20
2022-09-05T09:13:25.365Z,1.20
2022-09-05T09:16:11.028Z,1.45
2022-09-05T09:19:04.302Z,1.38
2022-09-05T09:21:47.766Z,1.33
2022-09-05T09:24:36.217Z,1.20
2022-09-05T09:27:15.799Z,1.20
2022-09-05T09:29:55.466Z,0.95
2022-09-05T09:32:31.979Z,1.10
2022-09-05T09:35:07.271Z,1.10
2022-09-05T09:38:04.760Z,1.08
2022-09-05T09:41:21.341Z,1.20
2022-09-05T09:44:28.811Z,1.00
2022-09-05T09:46:57.833Z,1.10
2022-09-05T09:49:46.873Z,1.10
2022-09-05T09:52:35.473Z,1.33
2022-09-05T09:55:48.813Z,1.20
2022-09-05T09:58:45.967Z,0.90
2022-09-05T10:01:38.908Z,0.90
2022-09-05T10:10:37.742Z,1.10
2022-09-05T10:11:09.012Z,0.90
2022-09-05T10:11:52.027Z,1.10
2022-09-05T10:15:11.300Z,1.00
2022-09-05T10:18:33.423Z,1.13
2022-09-05T10:21:46.058Z,0.80
2022-09-05T10:24:43.721Z,1.00
2022-09-05T10:27:45.680Z,0.77
2022-09-05T10:30:25.308Z,1.10
2022-09-05T10:35:13.147Z,0.95
2022-09-05T10:36:29.390Z,0.93
2022-09-05T10:39:15.871Z,1.05
2022-09-05T10:41:50.983Z,1.10
2022-09-05T10:44:40.840Z,0.90
2022-09-05T10:47:26.737Z,0.90
2022-09-05T10:50:12.040Z,1.08
2022-09-05T10:52:59.494Z,1.35
2022-09-05T10:55:41.856Z,1.10
2022-09-05T10:58:29.053Z,0.93
2022-09-05T11:02:20.364Z,1.27
2022-09-05T11:04:23.900Z,0.93
2022-09-05T11:07:04.883Z,1.10
2022-09-05T11:09:48.220Z,1.20
2022-09-05T11:12:47.889Z,1.10
2022-09-05T11:15:35.367Z,0.90
2022-09-05T11:18:15.909Z,1.08
2022-09-05T11:20:58.394Z,1.08
2022-09-05T11:23:40.058Z,0.90
2022-09-05T11:26:29.555Z,1.10
2022-09-05T11:29:09.983Z,1.00
2022-09-05T11:32:23.818Z,0.98
2022-09-05T11:39:51.485Z,1.10
2022-09-05T11:40:04.534Z,0.98
2022-09-05T11:42:00.060Z,0.85
2022-09-05T11:44:36.315Z,0.93
2022-09-05T11:47:47.031Z,1.13
2022-09-05T11:50:46.594Z,1.10
2022-09-05T11:54:04.099Z,1.00
2022-09-05T11:57:33.753Z,1.13
2022-09-05T12:00:32.974Z,1.00
2022-09-05T12:03:58.776Z,1.10
2022-09-05T12:07:02.947Z,1.20
2022-09-05T12:10:05.962Z,0.90
2022-09-05T12:12:44.495Z,0.80
2022-09-05T12:18:42.492Z,1.10
2022-09-05T12:21:38.229Z,1.13
2022-09-05T12:25:26.071Z,1.00
2022-09-05T12:27:35.651Z,0.85
2022-09-05T12:30:14.290Z,1.33
2022-09-05T12:36:01.493Z,1.00
2022-09-05T12:36:13.012Z,1.20
2022-09-05T12:40:43.604Z,1.30
2022-09-05T12:41:41.216Z,0.88
2022-09-05T12:42:13.920Z,1.10
2022-09-05T12:44:47.775Z,1.10
2022-09-05T12:47:28.974Z,1.10
2022-09-05T12:50:14.362Z,1.13
2022-09-05T12:52:52.956Z,1.10
2022-09-05T12:55:27.638Z,1.10
2022-09-05T13:02:58.007Z,1.10
2022-09-05T13:03:12.855Z,1.13
2022-09-05T13:04:32.242Z,1.10
2022-09-05T13:07:09.713Z,1.10
2022-09-05T13:10:02.696Z,1.13
2022-09-05T13:14:55.593Z,1.00
2022-09-05T13:15:58.243Z,1.30
2022-09-05T13:18:30.913Z,1.17
2022-09-05T13:21:12.062Z,1.00
2022-09-05T13:23:50.068Z,1.10
2022-09-05T13:26:30.242Z,1.17
2022-09-05T13:29:10.644Z,1.20
2022-09-05T13:38:01.630Z,0.93
2022-09-05T13:38:03.157Z,1.10
2022-09-05T13:41:07.368Z,1.00
2022-09-05T13:44:27.030Z,0.90
2022-09-05T13:46:58.853Z,1.00
2022-09-05T13:49:38.154Z,1.08
2022-09-05T13:52:28.080Z,1.13
2022-09-05T13:55:29.912Z,1.00
2022-09-05T13:58:07.678Z,1.15
2022-09-05T14:01:14.482Z,1.10
2022-09-05T14:07:46.334Z,1.00
2022-09-05T14:10:48.623Z,1.10
2022-09-05T14:13:28.268Z,0.88
2022-09-05T14:16:08.212Z,1.05
2022-09-05T14:19:08.107Z,1.05
2022-09-05T14:21:40.780Z,0.95
2022-09-05T14:24:27.402Z,0.95
2022-09-05T14:27:08.982Z,1.05
2022-09-05T14:29:46.979Z,1.10
2022-09-05T14:37:35.484Z,1.13
2022-09-05T14:37:45.377Z,1.10
2022-09-05T14:39:14.600Z,1.20
2022-09-05T14:42:15.738Z,1.02
2022-09-05T14:45:06.211Z,0.90
2022-09-05T14:48:02.500Z,0.93
2022-09-05T14:51:05.284Z,1.10
2022-09-05T14:59:44.900Z,1.02
2022-09-05T15:02:51.878Z,1.27
2022-09-05T15:02:56.990Z,1.25
2022-09-05T15:05:37.022Z,1.23
2022-09-05T15:09:19.829Z,0.90
2022-09-05T15:12:21.742Z,1.20
2022-09-05T15:14:16.059Z,1.30
2022-09-05T15:16:59.326Z,1.27
2022-09-05T15:20:15.151Z,1.05
2022-09-05T15:22:43.619Z,1.00
2022-09-05T15:25:25.196Z,1.40
2022-09-05T15:27:54.731Z,1.00
2022-09-05T15:30:35.651Z,1.20
2022-09-05T15:33:25.777Z,1.00
2022-09-05T15:36:01.332Z,1.10
2022-09-05T15:38:46.685Z,1.38
2022-09-05T15:41:31.178Z,1.10
2022-09-05T15:44:09.488Z,1.02
2022-09-05T15:47:08.153Z,1.02
2022-09-05T15:49:43.131Z,1.20
2022-09-05T15:52:39.142Z,1.08
2022-09-05T15:55:13.941Z,1.02
2022-09-05T15:57:54.245Z,1.13
2022-09-05T16:00:44.069Z,1.00
2022-09-05T16:05:36.904Z,0.90
2022-09-05T16:10:36.097Z,1.10
2022-09-05T16:10:49.375Z,1.10
2022-09-05T16:12:44.162Z,1.20
2022-09-05T16:18:03.095Z,1.30
2022-09-05T16:23:26.768Z,0.95
2022-09-05T16:23:28.886Z,1.00
2022-09-05T16:24:15.420Z,1.00
2022-09-05T16:26:47.694Z,0.98
2022-09-05T16:29:27.183Z,1.05
2022-09-05T16:32:21.156Z,1.30
2022-09-05T16:34:55.401Z,1.15
2022-09-05T16:37:36.246Z,1.80
2022-09-05T16:40:13.632Z,1.88
2022-09-05T16:42:52.198Z,1.60
2022-09-05T16:45:31.834Z,1.40
2022-09-05T16:48:20.409Z,1.58
2022-09-05T16:50:54.934Z,1.30
2022-09-05T16:53:47.420Z,1.25
2022-09-05T16:56:50.310Z,1.55
2022-09-05T16:59:22.779Z,1.00
2022-09-05T17:02:18.357Z,1.30
2022-09-05T17:05:04.859Z,1.13
2022-09-05T17:07:53.326Z,1.20
2022-09-05T17:10:25.632Z,1.08
2022-09-05T17:13:03.187Z,1.00
2022-09-05T17:15:51.936Z,1.00
2022-09-05T17:18:25.922Z,1.00
2022-09-05T17:21:05.443Z,1.00
2022-09-05T17:29:01.302Z,1.00
2022-09-05T17:29:28.160Z,1.10
2022-09-05T17:31:25.228Z,1.10
2022-09-05T17:32:47.646Z,1.00
2022-09-05T17:35:28.437Z,1.10
2022-09-05T17:38:36.856Z,0.98
2022-09-05T17:41:41.428Z,1.17
2022-09-05T17:44:19.469Z,1.10
2022-09-05T17:47:20.535Z,1.10
2022-09-05T17:50:19.512Z,1.20
2022-09-05T17:53:25.209Z,1.00
2022-09-05T17:56:13.813Z,1.10
2022-09-05T17:59:14.492Z,1.15
2022-09-05T18:01:44.247Z,1.27
2022-09-05T18:04:52.452Z,1.25
2022-09-05T18:07:58.584Z,1.23
2022-09-05T18:11:14.431Z,1.20
2022-09-05T18:14:04.856Z,1.10
2022-09-05T18:17:37.370Z,1.10
2022-09-05T18:20:00.385Z,0.90
2022-09-05T18:22:45.289Z,1.10
2022-09-05T18:28:28.637Z,1.23
2022-09-05T18:31:25.488Z,1.10
2022-09-05T18:34:53.323Z,1.13
2022-09-05T18:38:00.467Z,1.30
2022-09-05T18:41:05.310Z,1.00
2022-09-05T18:44:13.197Z,1.10
2022-09-05T18:46:52.516Z,1.10
2022-09-05T18:50:21.718Z,1.00
2022-09-05T18:52:26.277Z,0.90
2022-09-05T18:55:31.656Z,1.00
2022-09-05T18:57:58.965Z,1.07
2022-09-05T19:00:44.435Z,0.90
2022-09-05T19:03:25.553Z,1.00
2022-09-05T19:06:34.712Z,0.87
2022-09-05T19:09:02.417Z,1.00
2022-09-05T19:11:36.458Z,0.83
2022-09-05T19:14:26.396Z,0.93
2022-09-05T19:17:07.475Z,0.90
2022-09-05T19:20:33.900Z,1.00
2022-09-05T19:23:10.569Z,0.93
2022-09-05T19:25:51.539Z,0.80
2022-09-05T19:36:55.832Z,1.00
2022-09-05T19:36:58.703Z,0.77
2022-09-05T19:37:08.027Z,0.90
2022-09-05T19:37:29.117Z,0.80
2022-09-05T19:42:08.144Z,1.23
2022-09-05T19:47:41.874Z,1.40
2022-09-05T19:47:42.235Z,1.33
2022-09-05T19:48:45.261Z,1.00
2022-09-05T19:51:24.851Z,1.10
2022-09-05T19:54:04.439Z,1.77
2022-09-05T19:56:44.419Z,1.20
2022-09-05T19:59:22.551Z,1.20
2022-09-05T20:01:59.379Z,1.33
2022-09-05T20:04:39.592Z,1.50
2022-09-05T20:07:23.566Z,1.87
2022-09-05T20:09:53.130Z,1.70
2022-09-05T20:12:30.586Z,1.50
2022-09-05T20:15:35.961Z,2.37
2022-09-05T20:18:28.761Z,2.63
2022-09-05T20:20:59.283Z,2.07
2022-09-05T20:23:37.411Z,2.00
2022-09-05T20:26:06.485Z,1.77
2022-09-05T20:28:44.444Z,1.73
2022-09-05T20:31:20.269Z,2.10
2022-09-05T20:33:59.436Z,1.83
2022-09-05T20:43:07.736Z,1.77
2022-09-05T20:43:19.944Z,1.70
2022-09-05T20:43:31.023Z,2.00
2022-09-05T20:45:58.798Z,1.93
2022-09-05T20:54:13.959Z,2.10
2022-09-05T20:54:20.952Z,1.90
2022-09-05T20:54:39.579Z,1.90
2022-09-05T20:57:22.610Z,1.97
2022-09-05T20:59:51.123Z,1.53
2022-09-05T21:02:32.994Z,1.67
2022-09-05T21:05:06.914Z,1.77
2022-09-05T21:08:02.488Z,1.70
2022-09-05T21:10:55.692Z,2.17
2022-09-05T21:13:32.430Z,1.70
2022-09-05T21:16:16.534Z,1.80
2022-09-05T21:18:52.450Z,1.73
2022-09-05T21:21:28.999Z,2.03
2022-09-05T21:24:17.882Z,1.60
2022-09-05T21:27:01.105Z,1.80
2022-09-05T21:29:58.925Z,1.70
2022-09-05T21:32:31.820Z,1.53
2022-09-05T21:35:34.555Z,1.77
2022-09-05T21:38:06.062Z,1.93
2022-09-05T21:40:41.682Z,1.87
2022-09-05T21:47:33.453Z,1.80
2022-09-05T21:47:47.220Z,1.67
2022-09-05T21:48:57.099Z,1.20
2022-09-05T21:51:34.652Z,1.70
2022-09-05T21:59:13.433Z,1.60
2022-09-05T21:59:16.681Z,1.70
2022-09-05T22:00:14.916Z,1.67
2022-09-05T22:02:46.862Z,1.63
2022-09-05T22:05:21.497Z,1.70
2022-09-05T22:08:00.518Z,1.50
2022-09-05T22:10:43.426Z,1.50
2022-09-05T22:13:26.513Z,1.70
2022-09-05T22:16:10.750Z,1.50
2022-09-05T22:18:41.639Z,1.60
2022-09-05T22:21:34.045Z,1.53
2022-09-05T22:24:06.532Z,1.80
2022-09-05T22:27:11.162Z,1.40
2022-09-05T22:29:36.365Z,1.50
2022-09-05T22:32:11.582Z,1.30
2022-09-05T22:34:40.253Z,1.50
2022-09-05T22:37:15.529Z,1.50
2022-09-05T22:39:44.509Z,1.27
2022-09-05T22:42:21.588Z,1.40
2022-09-05T22:44:50.051Z,2.20
2022-09-05T22:47:26.536Z,1.90
2022-09-05T22:49:54.988Z,1.60
2022-09-05T22:52:29.531Z,1.50
2022-09-05T22:54:57.887Z,1.50
2022-09-05T22:57:34.529Z,1.90
2022-09-05T23:00:03.195Z,3.33
2022-09-05T23:02:41.621Z,2.97
2022-09-05T23:05:10.801Z,3.67
2022-09-05T23:07:45.720Z,4.23
2022-09-05T23:10:14.211Z,4.30
2022-09-05T23:12:50.746Z,3.70
2022-09-05T23:15:26.790Z,4.00
2022-09-05T23:18:02.754Z,4.00
2022-09-05T23:20:33.343Z,3.60
2022-09-05T23:23:13.979Z,3.30
2022-09-05T23:25:42.590Z,3.03
2022-09-05T23:28:19.624Z,3.57
2022-09-05T23:30:49.794Z,4.47
2022-09-05T23:33:24.570Z,4.23
2022-09-05T23:35:52.900Z,4.23
2022-09-05T23:38:27.743Z,4.40
2022-09-05T23:41:01.498Z,4.53
2022-09-05T23:43:38.607Z,4.30
2022-09-05T23:46:07.951Z,4.20
2022-09-05T23:48:42.581Z,4.40
2022-09-05T23:51:14.225Z,4.30
2022-09-05T23:53:49.606Z,4.23
2022-09-05T23:56:20.411Z,3.90
2022-09-05T23:58:56.591Z,3.80
